Time;durP1;ratioP1;P1;durP2;ratioP2;P2;SDS_P1;SDS_P2;PMS_P1;PMS_P2;Temp;Humidity;BMP_temperature;BMP_pressure;BME280_temperature;BME280_humidity;BME280_pressure;Samples;Min_cycle;Max_cycle;Signal;HPM_P1;HPM_P2
2023/05/11 00:00:52;;;;;;;3.20;1.97;;;8.50;99.90;;;;;;4144911;28;20437;-74
2023/05/11 00:02:53;;;;;;;4.23;2.43;;;8.40;99.90;;;;;;4145995;28;20465;-76
2023/05/11 00:04:54;;;;;;;4.10;2.63;;;8.20;99.90;;;;;;4145508;28;20041;-76
2023/05/11 00:06:55;;;;;;;3.67;2.87;;;8.10;99.90;;;;;;4156332;28;20367;-77
2023/05/11 00:08:57;;;;;;;3.87;2.70;;;8.00;99.90;;;;;;4148668;28;20570;-69
2023/05/11 00:11:01;;;;;;;2.53;2.33;;;7.90;99.90;;;;;;4145558;28;20092;-77
2023/05/11 00:13:02;;;;;;;3.87;2.40;;;7.90;99.90;;;;;;4145074;28;20061;-70
2023/05/11 00:15:03;;;;;;;4.10;3.40;;;7.90;99.90;;;;;;4146115;28;20037;-76
2023/05/11 00:17:05;;;;;;;6.07;2.77;;;7.80;99.90;;;;;;4145025;28;20702;-73
2023/05/11 00:19:06;;;;;;;3.97;2.53;;;7.90;99.90;;;;;;4144789;28;20092;-77
2023/05/11 00:21:07;;;;;;;6.80;3.93;;;7.80;99.90;;;;;;4144487;28;20041;-77
2023/05/11 00:23:08;;;;;;;3.73;2.73;;;7.80;99.90;;;;;;4145717;28;20034;-77
2023/05/11 00:25:09;;;;;;;4.30;2.40;;;7.80;99.90;;;;;;4144583;28;20126;-77
2023/05/11 00:27:10;;;;;;;3.40;2.90;;;7.70;99.90;;;;;;4144622;28;20050;-72
2023/05/11 00:29:12;;;;;;;4.63;2.83;;;7.60;99.90;;;;;;4145408;28;20108;-76
2023/05/11 00:31:13;;;;;;;4.17;2.83;;;7.60;99.90;;;;;;4150682;28;20088;-77
2023/05/11 00:33:14;;;;;;;2.87;2.50;;;7.50;99.90;;;;;;4162136;28;20463;-76
2023/05/11 00:35:15;;;;;;;5.50;2.73;;;7.50;99.90;;;;;;4161401;28;20421;-77
2023/05/11 00:37:16;;;;;;;2.93;2.53;;;7.50;99.90;;;;;;4144065;28;20042;-76
2023/05/11 00:39:17;;;;;;;4.40;2.57;;;7.40;99.90;;;;;;4160812;28;20037;-73
2023/05/11 00:41:18;;;;;;;8.07;3.13;;;7.40;99.90;;;;;;4150863;28;20112;-76
2023/05/11 00:43:19;;;;;;;4.47;2.77;;;7.40;99.90;;;;;;4145636;28;20080;-76
2023/05/11 00:45:21;;;;;;;3.77;2.90;;;7.40;99.90;;;;;;4145540;28;20494;-71
2023/05/11 00:47:22;;;;;;;5.30;3.20;;;7.40;99.90;;;;;;4144442;28;20026;-75
2023/05/11 00:49:23;;;;;;;4.13;2.80;;;7.40;99.90;;;;;;4145524;28;20034;-76
2023/05/11 00:51:25;;;;;;;5.07;2.80;;;7.40;99.90;;;;;;4144498;28;20014;-76
2023/05/11 00:53:26;;;;;;;5.37;3.97;;;7.40;99.90;;;;;;4158172;28;20072;-63
2023/05/11 00:55:27;;;;;;;4.63;2.83;;;7.50;99.90;;;;;;4161079;28;20452;-68
2023/05/11 00:57:32;;;;;;;6.73;3.00;;;7.50;99.90;;;;;;4141568;28;20042;-62
2023/05/11 00:59:33;;;;;;;5.10;2.90;;;7.50;99.90;;;;;;4161412;28;20152;-75
2023/05/11 01:01:37;;;;;;;4.97;2.67;;;7.50;99.90;;;;;;4151834;28;20018;-76
2023/05/11 01:03:38;;;;;;;3.27;2.80;;;7.50;99.90;;;;;;4152210;28;20444;-77
2023/05/11 01:05:56;;;;;;;3.63;3.03;;;7.50;99.90;;;;;;4147256;28;20050;-75
2023/05/11 01:08:30;;;;;;;5.50;2.87;;;7.40;99.90;;;;;;4148506;28;20026;-76
2023/05/11 01:10:40;;;;;;;4.63;2.50;;;7.40;99.90;;;;;;4148805;28;20038;-76
2023/05/11 01:12:52;;;;;;;3.47;3.03;;;7.40;99.90;;;;;;4148156;28;20572;-76
2023/05/11 01:15:05;;;;;;;4.17;2.83;;;7.40;99.90;;;;;;4148211;28;20034;-73
2023/05/11 01:17:12;;;;;;;4.43;2.80;;;7.30;99.90;;;;;;4147885;28;20030;-76
2023/05/11 01:19:56;;;;;;;5.20;2.67;;;7.30;99.90;;;;;;4148067;28;20053;-76
2023/05/11 01:21:58;;;;;;;3.60;2.50;;;7.30;99.90;;;;;;4147083;28;20449;-76
2023/05/11 01:24:18;;;;;;;8.97;2.97;;;7.30;99.90;;;;;;4148550;28;20072;-78
2023/05/11 01:26:46;;;;;;;4.13;3.17;;;7.20;99.90;;;;;;4147427;28;20100;-77
2023/05/11 01:29:24;;;;;;;5.30;3.40;;;7.20;99.90;;;;;;4148510;28;20042;-76
2023/05/11 01:31:30;;;;;;;4.50;3.03;;;7.20;99.90;;;;;;4147146;28;20048;-77
2023/05/11 01:33:34;;;;;;;4.10;3.03;;;7.20;99.90;;;;;;4148057;28;20042;-76
2023/05/11 01:35:40;;;;;;;5.33;3.37;;;7.20;99.90;;;;;;4149453;28;20029;-77
2023/05/11 01:37:47;;;;;;;5.20;3.30;;;7.20;99.90;;;;;;4160417;28;20042;-73
2023/05/11 01:39:55;;;;;;;7.27;3.63;;;7.30;99.90;;;;;;4147198;28;20095;-75
2023/05/11 01:41:59;;;;;;;5.23;3.23;;;7.30;99.90;;;;;;4131253;28;20030;-76
2023/05/11 01:44:04;;;;;;;6.20;2.87;;;7.30;99.90;;;;;;4150250;28;20068;-77
2023/05/11 01:46:05;;;;;;;4.47;3.07;;;7.30;99.90;;;;;;4161120;28;20055;-75
2023/05/11 01:48:11;;;;;;;3.53;2.60;;;7.30;99.90;;;;;;4162630;28;20041;-69
2023/05/11 01:50:15;;;;;;;3.90;2.80;;;7.30;99.90;;;;;;4164266;28;20474;-62
2023/05/11 01:52:19;;;;;;;6.23;3.60;;;7.20;99.90;;;;;;4162884;28;20042;-62
2023/05/11 01:54:22;;;;;;;4.23;3.40;;;7.20;99.90;;;;;;4144689;28;20045;-62
2023/05/11 01:56:25;;;;;;;4.73;3.20;;;7.20;99.90;;;;;;4162558;28;20087;-61
2023/05/11 01:58:28;;;;;;;4.73;2.90;;;7.10;99.90;;;;;;4163405;28;20041;-62
2023/05/11 02:00:30;;;;;;;4.03;2.83;;;7.10;99.90;;;;;;4163435;28;20079;-64
2023/05/11 02:02:33;;;;;;;4.27;2.77;;;7.10;99.90;;;;;;4157901;28;20038;-63
2023/05/11 02:04:36;;;;;;;4.50;3.03;;;7.10;99.90;;;;;;4147713;28;20049;-75
2023/05/11 02:06:39;;;;;;;5.97;2.93;;;7.10;99.90;;;;;;4148318;28;20029;-67
2023/05/11 02:08:42;;;;;;;5.47;3.37;;;7.00;99.90;;;;;;4147481;28;20018;-61
2023/05/11 02:10:45;;;;;;;5.43;3.43;;;7.00;99.90;;;;;;4147849;28;20030;-75
2023/05/11 02:12:51;;;;;;;3.77;2.77;;;7.00;99.90;;;;;;4147798;28;20494;-74
2023/05/11 02:14:53;;;;;;;5.43;3.40;;;7.00;99.90;;;;;;4146721;28;20080;-76
2023/05/11 02:16:56;;;;;;;3.87;2.90;;;7.00;99.90;;;;;;4146905;28;20041;-76
2023/05/11 02:18:58;;;;;;;6.97;3.20;;;6.90;99.90;;;;;;4146525;28;20104;-76
2023/05/11 02:21:01;;;;;;;4.10;2.90;;;6.90;99.90;;;;;;4147824;28;20026;-62
2023/05/11 02:23:03;;;;;;;6.97;3.03;;;6.90;99.90;;;;;;4155411;28;20095;-76
2023/05/11 02:25:06;;;;;;;5.00;2.80;;;6.90;99.90;;;;;;4164078;28;20550;-62
2023/05/11 02:27:07;;;;;;;5.13;2.97;;;6.80;99.90;;;;;;4162541;28;20034;-63
2023/05/11 02:29:09;;;;;;;4.47;3.13;;;6.80;99.90;;;;;;4164197;28;20095;-76
2023/05/11 02:31:17;;;;;;;4.87;2.87;;;6.80;99.90;;;;;;4162633;28;20029;-77
2023/05/11 02:33:22;;;;;;;3.73;2.60;;;6.80;99.90;;;;;;4163994;28;20017;-65
2023/05/11 02:35:27;;;;;;;4.60;3.33;;;6.80;99.90;;;;;;4161839;28;20045;-65
2023/05/11 02:37:32;;;;;;;4.10;3.10;;;6.80;99.90;;;;;;4163117;28;20449;-62
2023/05/11 02:39:35;;;;;;;7.63;3.20;;;6.80;99.90;;;;;;4162009;28;20034;-75
2023/05/11 02:41:41;;;;;;;5.83;2.70;;;6.80;99.90;;;;;;4163380;28;20037;-62
2023/05/11 02:43:48;;;;;;;4.53;3.23;;;6.80;99.90;;;;;;4162796;28;20029;-67
2023/05/11 02:45:55;;;;;;;11.23;3.40;;;6.80;99.90;;;;;;4162885;28;20033;-62
2023/05/11 02:47:59;;;;;;;6.10;3.20;;;6.70;99.90;;;;;;4158869;28;20422;-74
2023/05/11 02:50:03;;;;;;;7.43;3.83;;;6.70;99.90;;;;;;4161301;28;20437;-63
2023/05/11 02:52:06;;;;;;;5.60;3.00;;;6.70;99.90;;;;;;4162568;28;20140;-74
2023/05/11 02:54:09;;;;;;;6.83;3.27;;;6.70;99.90;;;;;;4162409;28;21340;-62
2023/05/11 02:56:11;;;;;;;4.97;3.40;;;6.70;99.90;;;;;;4161524;28;20030;-62
2023/05/11 02:58:12;;;;;;;7.47;3.77;;;6.70;99.90;;;;;;4162397;28;20477;-74
2023/05/11 03:00:13;;;;;;;5.00;2.90;;;6.70;99.90;;;;;;4163102;28;20075;-68
2023/05/11 03:02:15;;;;;;;6.63;3.30;;;6.70;99.90;;;;;;4144018;28;20084;-69
2023/05/11 03:04:17;;;;;;;4.77;3.90;;;6.70;99.90;;;;;;4163586;28;20413;-62
2023/05/11 03:06:18;;;;;;;4.20;3.03;;;6.90;99.90;;;;;;4160706;28;20041;-65
2023/05/11 03:08:19;;;;;;;7.20;3.07;;;6.90;99.90;;;;;;4163174;28;20076;-62
2023/05/11 03:10:21;;;;;;;5.07;3.00;;;6.90;99.90;;;;;;4162239;28;20033;-68
2023/05/11 03:12:22;;;;;;;4.90;3.77;;;7.00;99.90;;;;;;4162967;28;20038;-76
2023/05/11 03:14:24;;;;;;;9.43;3.40;;;7.20;99.90;;;;;;4157705;28;20030;-75
2023/05/11 03:16:27;;;;;;;3.10;2.80;;;7.30;99.90;;;;;;4146742;28;20025;-76
2023/05/11 03:18:29;;;;;;;4.47;3.20;;;7.50;99.90;;;;;;4144934;28;20042;-73
2023/05/11 03:20:32;;;;;;;6.30;4.00;;;7.70;99.90;;;;;;4145699;28;20029;-76
2023/05/11 03:22:35;;;;;;;3.60;3.27;;;7.90;99.90;;;;;;4145181;28;20030;-63
2023/05/11 03:24:38;;;;;;;6.03;3.30;;;8.00;99.90;;;;;;4145179;28;20026;-63
2023/05/11 03:26:42;;;;;;;6.20;3.37;;;8.30;99.90;;;;;;4154387;28;20486;-63
2023/05/11 03:28:45;;;;;;;8.70;4.13;;;8.50;99.90;;;;;;4160564;28;20029;-62
2023/05/11 03:30:48;;;;;;;4.97;3.03;;;8.70;99.90;;;;;;4161879;28;20025;-63
2023/05/11 03:32:49;;;;;;;5.17;3.20;;;8.90;99.90;;;;;;4160728;28;20021;-62
2023/05/11 03:34:51;;;;;;;6.47;3.37;;;9.10;99.90;;;;;;4161453;28;20069;-62
2023/05/11 03:36:53;;;;;;;8.67;3.63;;;9.30;99.90;;;;;;4160086;28;20041;-62
2023/05/11 03:38:56;;;;;;;5.10;3.27;;;9.70;99.90;;;;;;4161845;28;20076;-62
2023/05/11 03:40:59;;;;;;;9.73;3.97;;;10.20;99.90;;;;;;4156864;28;20421;-63
2023/05/11 03:43:02;;;;;;;5.63;3.40;;;10.30;99.90;;;;;;4161347;28;20441;-65
2023/05/11 03:45:07;;;;;;;7.40;3.07;;;10.70;99.90;;;;;;4160574;28;20080;-62
2023/05/11 03:47:09;;;;;;;6.30;3.37;;;10.80;99.90;;;;;;4159673;28;20022;-62
2023/05/11 03:49:11;;;;;;;10.37;5.13;;;11.00;99.90;;;;;;4149410;28;20041;-69
2023/05/11 03:51:13;;;;;;;12.50;7.77;;;11.00;99.90;;;;;;4158800;28;20049;-62
2023/05/11 03:53:15;;;;;;;9.60;5.20;;;10.90;99.90;;;;;;4144472;28;20038;-62
2023/05/11 03:55:17;;;;;;;7.87;3.87;;;11.00;99.90;;;;;;4146208;28;20084;-63
2023/05/11 03:57:18;;;;;;;7.93;3.70;;;11.10;99.90;;;;;;4147881;28;20475;-62
2023/05/11 03:59:19;;;;;;;6.40;3.60;;;11.10;99.90;;;;;;4159345;28;20041;-63
2023/05/11 04:01:21;;;;;;;7.30;3.47;;;11.30;99.90;;;;;;4160080;28;20462;-63
2023/05/11 04:03:22;;;;;;;4.77;3.03;;;11.40;99.90;;;;;;4160116;28;20041;-63
2023/05/11 04:05:23;;;;;;;4.77;3.53;;;11.60;99.90;;;;;;4156573;28;20042;-61
2023/05/11 04:07:25;;;;;;;8.77;3.40;;;11.80;99.90;;;;;;4143878;28;20529;-62
2023/05/11 04:09:26;;;;;;;8.67;3.17;;;11.90;99.90;;;;;;4144783;28;20088;-60
2023/05/11 04:11:29;;;;;;;6.83;3.07;;;12.20;99.90;;;;;;4127931;28;20772;-63
2023/05/11 04:13:30;;;;;;;4.57;3.10;;;12.30;99.90;;;;;;4152674;28;20080;-61
2023/05/11 04:15:31;;;;;;;4.73;3.27;;;12.60;99.90;;;;;;4143012;28;20050;-61
2023/05/11 04:17:32;;;;;;;8.50;3.43;;;12.90;99.90;;;;;;4153606;28;20030;-62
2023/05/11 04:19:33;;;;;;;9.03;3.67;;;13.30;99.90;;;;;;4111618;28;1232286;-62
2023/05/11 04:21:34;;;;;;;6.03;3.43;;;13.60;99.90;;;;;;4161460;28;20520;-62
2023/05/11 04:23:36;;;;;;;4.00;3.30;;;14.40;99.90;;;;;;4160372;28;20026;-60
2023/05/11 04:25:37;;;;;;;7.30;3.40;;;15.00;99.90;;;;;;4161457;28;20445;-60
2023/05/11 04:27:38;;;;;;;3.80;3.40;;;15.30;99.90;;;;;;4142998;28;20072;-68
2023/05/11 04:29:39;;;;;;;5.00;2.73;;;15.90;99.90;;;;;;4161712;28;20026;-75
2023/05/11 04:31:40;;;;;;;3.37;3.07;;;16.30;99.90;;;;;;4160473;28;20371;-76
2023/05/11 04:33:41;;;;;;;4.57;3.20;;;16.90;99.50;;;;;;4142182;28;20120;-77
2023/05/11 04:35:42;;;;;;;8.50;2.83;;;17.00;98.50;;;;;;4137077;28;20046;-77
2023/05/11 04:37:43;;;;;;;5.15;2.35;;;16.80;98.00;;;;;;4153088;28;20038;-70
2023/05/11 04:39:44;;;;;;;10.60;3.15;;;16.40;97.70;;;;;;4155115;28;20099;-74
2023/05/11 04:41:45;;;;;;;3.03;2.00;;;16.40;97.70;;;;;;4147867;28;20041;-74
2023/05/11 04:43:47;;;;;;;4.40;2.00;;;15.70;96.90;;;;;;4131025;28;20062;-77
2023/05/11 04:45:51;;;;;;;2.63;2.13;;;15.30;97.70;;;;;;4159601;28;20144;-80
2023/05/11 04:47:52;;;;;;;3.95;2.38;;;14.80;98.10;;;;;;4160832;28;20037;-77
2023/05/11 04:49:53;;;;;;;3.05;1.90;;;14.40;98.60;;;;;;4160572;28;20452;-78
2023/05/11 04:51:54;;;;;;;3.55;1.90;;;14.40;98.70;;;;;;4161655;28;20048;-77
2023/05/11 04:53:55;;;;;;;2.45;1.80;;;14.20;98.80;;;;;;4160458;28;20780;-74
2023/05/11 04:55:57;;;;;;;4.03;2.13;;;14.20;99.00;;;;;;4161251;28;20045;-80
2023/05/11 04:57:58;;;;;;;2.88;2.00;;;14.20;99.00;;;;;;4160188;28;20029;-77
2023/05/11 04:59:59;;;;;;;3.72;2.08;;;14.10;99.10;;;;;;4160604;28;20025;-78
2023/05/11 05:02:00;;;;;;;3.20;2.30;;;13.80;99.50;;;;;;4160208;28;20037;-73
2023/05/11 05:04:01;;;;;;;4.47;2.47;;;14.10;99.10;;;;;;4160618;28;20440;-80
2023/05/11 05:06:02;;;;;;;4.43;2.80;;;13.50;99.50;;;;;;4161601;28;20041;-74
2023/05/11 05:08:04;;;;;;;4.70;2.37;;;13.30;99.90;;;;;;4160520;28;20034;-79
2023/05/11 05:10:07;;;;;;;6.30;2.50;;;13.20;99.90;;;;;;4161335;28;20026;-74
2023/05/11 05:12:08;;;;;;;6.97;2.50;;;13.00;99.90;;;;;;4142168;28;20057;-74
2023/05/11 05:14:10;;;;;;;5.23;2.40;;;12.90;99.90;;;;;;4160829;28;20091;-77
2023/05/11 05:16:11;;;;;;;3.73;1.90;;;12.90;99.90;;;;;;4160461;28;20567;-70
2023/05/11 05:18:12;;;;;;;4.83;2.30;;;12.70;99.90;;;;;;4160937;28;20445;-79
2023/05/11 05:20:13;;;;;;;3.77;2.33;;;12.60;99.90;;;;;;4160211;28;20096;-79
2023/05/11 05:22:14;;;;;;;4.37;2.20;;;12.60;99.90;;;;;;4161393;28;20033;-78
2023/05/11 05:24:15;;;;;;;5.40;2.37;;;12.60;99.90;;;;;;4160106;28;20087;-74
2023/05/11 05:26:16;;;;;;;7.23;2.50;;;12.70;99.90;;;;;;4160339;28;20049;-65
2023/05/11 05:28:18;;;;;;;3.37;2.50;;;12.70;99.90;;;;;;4159300;28;20033;-63
2023/05/11 05:30:19;;;;;;;4.40;2.10;;;12.80;99.90;;;;;;4160958;28;20105;-73
2023/05/11 05:32:20;;;;;;;4.57;2.23;;;12.80;99.90;;;;;;4159479;28;20041;-69
2023/05/11 05:34:21;;;;;;;4.87;2.40;;;12.90;99.90;;;;;;4142592;28;20050;-78
2023/05/11 05:36:22;;;;;;;5.97;2.63;;;13.00;99.90;;;;;;4160367;28;20049;-76
2023/05/11 05:38:23;;;;;;;2.20;1.90;;;12.90;99.90;;;;;;4160052;28;20034;-71
2023/05/11 05:40:24;;;;;;;3.13;2.70;;;12.80;99.90;;;;;;4161023;28;20454;-75
2023/05/11 05:42:25;;;;;;;2.90;2.20;;;12.80;99.90;;;;;;4159884;28;20026;-73
2023/05/11 05:44:26;;;;;;;4.10;2.37;;;12.90;99.90;;;;;;4160071;28;20099;-77
2023/05/11 05:46:28;;;;;;;7.87;3.07;;;13.00;99.90;;;;;;4159770;28;20041;-75
2023/05/11 05:48:29;;;;;;;2.83;2.10;;;12.90;99.90;;;;;;4160830;28;20037;-79
2023/05/11 05:50:30;;;;;;;3.73;2.27;;;13.00;99.90;;;;;;4160007;28;20030;-79
2023/05/11 05:52:32;;;;;;;2.60;2.40;;;13.00;99.90;;;;;;4164021;28;20056;-73
2023/05/11 05:54:33;;;;;;;4.33;2.63;;;13.00;99.90;;;;;;4162703;28;20053;-72
2023/05/11 05:56:34;;;;;;;3.73;2.70;;;13.00;99.90;;;;;;4162613;28;20132;-77
2023/05/11 05:58:35;;;;;;;4.70;2.93;;;13.10;99.90;;;;;;4155594;28;20034;-70
2023/05/11 06:00:36;;;;;;;5.90;2.83;;;13.20;99.90;;;;;;4150633;28;20092;-62
2023/05/11 06:02:38;;;;;;;4.53;2.43;;;13.20;99.90;;;;;;4160574;28;20033;-76
2023/05/11 06:04:40;;;;;;;2.73;2.40;;;13.40;99.90;;;;;;4158286;28;20029;-79
2023/05/11 06:06:41;;;;;;;5.50;2.63;;;13.40;99.90;;;;;;4168904;28;20119;-75
2023/05/11 06:08:42;;;;;;;7.37;3.03;;;13.60;99.90;;;;;;4162609;28;20049;-78
2023/05/11 06:10:44;;;;;;;5.03;2.20;;;13.60;99.90;;;;;;4157134;28;20076;-76
2023/05/11 06:12:45;;;;;;;3.33;2.47;;;13.60;99.90;;;;;;4166510;28;20026;-76
2023/05/11 06:14:47;;;;;;;3.83;2.00;;;13.60;99.90;;;;;;4156366;28;20473;-79
2023/05/11 06:16:48;;;;;;;9.47;2.90;;;13.70;99.90;;;;;;4149563;28;20170;-79
2023/05/11 06:18:49;;;;;;;2.60;2.40;;;13.70;99.90;;;;;;4160081;28;20106;-79
2023/05/11 06:20:50;;;;;;;4.30;2.23;;;13.90;99.90;;;;;;4171701;28;20498;-75
2023/05/11 06:22:52;;;;;;;6.03;2.50;;;13.90;99.90;;;;;;4155470;28;20490;-75
2023/05/11 06:24:53;;;;;;;3.63;2.40;;;14.10;99.90;;;;;;4146466;28;20084;-78
2023/05/11 06:26:54;;;;;;;4.37;2.50;;;14.30;99.90;;;;;;4146854;28;20465;-76
2023/05/11 06:28:55;;;;;;;4.00;2.10;;;14.40;99.90;;;;;;4149408;28;20030;-78
2023/05/11 06:30:58;;;;;;;3.43;2.40;;;14.40;99.60;;;;;;4163345;28;20098;-80
2023/05/11 06:32:59;;;;;;;6.20;2.93;;;14.50;99.60;;;;;;4165397;28;20029;-76
2023/05/11 06:35:00;;;;;;;8.27;2.77;;;14.70;99.80;;;;;;4165562;28;20030;-78
2023/05/11 06:37:01;;;;;;;4.87;2.83;;;14.80;99.20;;;;;;4162917;28;20099;-61
2023/05/11 06:39:03;;;;;;;9.30;3.20;;;14.70;99.30;;;;;;4162519;28;20033;-62
2023/05/11 06:41:05;;;;;;;4.90;2.50;;;14.60;99.70;;;;;;4162755;28;20049;-62
2023/05/11 06:43:06;;;;;;;4.70;2.60;;;14.50;99.80;;;;;;4130358;28;20046;-62
2023/05/11 06:45:08;;;;;;;4.57;2.60;;;14.60;99.70;;;;;;4146645;28;20034;-61
2023/05/11 06:47:10;;;;;;;3.80;2.80;;;14.60;99.50;;;;;;4133527;28;20041;-61
2023/05/11 06:49:11;;;;;;;3.50;2.33;;;14.60;99.80;;;;;;4161757;28;20037;-63
2023/05/11 06:51:12;;;;;;;2.93;2.20;;;14.70;99.60;;;;;;4158029;28;20042;-61
2023/05/11 06:53:15;;;;;;;4.93;2.57;;;14.70;99.40;;;;;;4165147;28;20037;-62
2023/05/11 06:55:17;;;;;;;4.87;2.70;;;14.70;99.30;;;;;;4150247;28;20034;-62
2023/05/11 06:57:18;;;;;;;6.30;2.17;;;14.70;99.20;;;;;;4151065;28;20083;-62
2023/05/11 06:59:19;;;;;;;5.93;2.10;;;14.70;99.00;;;;;;4156855;28;20433;-62
2023/05/11 07:01:20;;;;;;;3.43;2.20;;;14.70;98.80;;;;;;4162830;28;20033;-60
2023/05/11 07:03:21;;;;;;;5.27;2.17;;;14.90;98.60;;;;;;4160067;28;20037;-61
2023/05/11 07:05:22;;;;;;;7.50;1.80;;;14.90;98.50;;;;;;4161273;28;20087;-62
2023/05/11 07:07:23;;;;;;;2.63;1.80;;;14.90;98.20;;;;;;4148888;28;20551;-75
2023/05/11 07:09:25;;;;;;;2.30;1.70;;;14.90;98.10;;;;;;4136105;28;20042;-77
2023/05/11 07:11:26;;;;;;;2.57;1.90;;;15.00;98.20;;;;;;4146391;28;20286;-71
2023/05/11 07:13:27;;;;;;;3.03;1.80;;;15.20;98.30;;;;;;4145295;28;20018;-78
2023/05/11 07:15:28;;;;;;;5.53;1.80;;;15.10;97.90;;;;;;4146205;28;20112;-67
2023/05/11 07:17:29;;;;;;;3.10;2.10;;;15.00;97.80;;;;;;4145523;28;20355;-72
2023/05/11 07:19:30;;;;;;;4.20;2.30;;;15.10;97.70;;;;;;4146423;28;20096;-76
2023/05/11 07:21:32;;;;;;;4.40;1.90;;;15.10;97.50;;;;;;4146128;28;20559;-73
2023/05/11 07:23:34;;;;;;;6.03;1.90;;;15.30;97.70;;;;;;4155472;28;20482;-78
2023/05/11 07:25:35;;;;;;;6.37;2.63;;;15.40;97.30;;;;;;4150542;28;20096;-59
2023/05/11 07:27:36;;;;;;;6.88;2.33;;;15.20;97.30;;;;;;4146055;28;20125;-62
2023/05/11 07:29:37;;;;;;;10.27;3.00;;;15.10;97.20;;;;;;4143878;28;20038;-61
2023/05/11 07:31:38;;;;;;;15.75;3.20;;;15.20;97.20;;;;;;4148811;28;20034;-66
2023/05/11 07:33:39;;;;;;;2.83;2.20;;;15.30;97.10;;;;;;4135305;28;20092;-79
2023/05/11 07:35:41;;;;;;;3.00;1.50;;;15.50;96.80;;;;;;4161328;28;20128;-77
2023/05/11 07:37:42;;;;;;;3.92;1.92;;;15.60;96.20;;;;;;4161043;28;20041;-64
2023/05/11 07:39:43;;;;;;;2.25;1.60;;;15.80;96.20;;;;;;4160828;28;20029;-76
2023/05/11 07:41:44;;;;;;;2.70;1.48;;;16.10;95.90;;;;;;4161273;28;20034;-73
2023/05/11 07:43:45;;;;;;;4.15;1.63;;;16.20;95.30;;;;;;4155450;28;20092;-74
2023/05/11 07:45:46;;;;;;;3.47;1.13;;;16.30;93.90;;;;;;4145849;28;20042;-75
2023/05/11 07:47:47;;;;;;;2.47;1.58;;;16.40;93.20;;;;;;4146752;28;20088;-62
2023/05/11 07:49:49;;;;;;;2.28;2.00;;;16.30;93.00;;;;;;4147005;28;20083;-73
2023/05/11 07:51:51;;;;;;;2.58;1.40;;;16.00;92.70;;;;;;4144186;28;20045;-70
2023/05/11 07:53:52;;;;;;;4.75;1.85;;;16.00;92.30;;;;;;4144320;28;20049;-69
2023/05/11 07:55:53;;;;;;;1.70;1.60;;;16.00;92.50;;;;;;4687804;22;20039;-71
2023/05/11 07:57:54;;;;;;;3.08;1.38;;;16.00;92.70;;;;;;4145387;28;20042;-61
2023/05/11 07:59:56;;;;;;;1.63;1.40;;;16.10;93.00;;;;;;4146773;28;20034;-72
2023/05/11 08:01:57;;;;;;;2.38;1.90;;;16.10;92.70;;;;;;4145831;28;20586;-61
2023/05/11 08:03:59;;;;;;;4.50;1.60;;;16.10;92.90;;;;;;4143344;28;20034;-66
2023/05/11 08:06:00;;;;;;;4.53;1.88;;;16.10;92.80;;;;;;4145429;28;20095;-75
2023/05/11 08:08:01;;;;;;;4.13;1.50;;;16.00;92.40;;;;;;4144762;28;20034;-61
2023/05/11 08:10:02;;;;;;;2.80;1.20;;;16.00;92.20;;;;;;4145915;28;20080;-73
2023/05/11 08:12:04;;;;;;;2.05;1.50;;;16.10;91.70;;;;;;4143894;28;20490;-63
2023/05/11 08:14:05;;;;;;;1.90;1.48;;;16.20;91.70;;;;;;4155821;28;20480;-72
2023/05/11 08:16:06;;;;;;;2.55;1.40;;;16.20;91.50;;;;;;4144061;28;20410;-63
2023/05/11 08:18:07;;;;;;;2.05;1.58;;;16.10;91.50;;;;;;4144850;28;20049;-64
2023/05/11 08:20:09;;;;;;;7.45;1.77;;;16.10;91.80;;;;;;4158724;28;20104;-76
2023/05/11 08:22:10;;;;;;;3.78;1.30;;;16.20;91.70;;;;;;4157935;28;20091;-78
2023/05/11 08:24:12;;;;;;;2.28;1.50;;;16.30;91.80;;;;;;4162059;28;20541;-72
2023/05/11 08:26:14;;;;;;;3.35;1.42;;;16.40;91.50;;;;;;4149627;28;20068;-71
2023/05/11 08:28:15;;;;;;;1.92;1.30;;;16.70;91.70;;;;;;4157718;28;20839;-77
2023/05/11 08:30:16;;;;;;;2.90;1.60;;;16.80;91.60;;;;;;4145876;28;20070;-71
2023/05/11 08:32:17;;;;;;;1.77;1.25;;;16.90;91.20;;;;;;4145144;28;20030;-78
2023/05/11 08:34:19;;;;;;;1.95;1.27;;;16.80;90.50;;;;;;4145948;28;20037;-70
2023/05/11 08:36:20;;;;;;;5.45;1.77;;;16.50;90.70;;;;;;4156356;28;20021;-74
2023/05/11 08:38:21;;;;;;;2.65;1.55;;;16.40;90.50;;;;;;4156588;28;20363;-83
2023/05/11 08:40:26;;;;;;;1.90;1.40;;;16.50;90.90;;;;;;4172512;28;20067;-62
2023/05/11 08:42:31;;;;;;;4.10;1.55;;;16.70;90.90;;;;;;4159212;28;20460;-61
2023/05/11 08:44:36;;;;;;;1.48;1.38;;;16.80;91.10;;;;;;4158053;28;20033;-62
2023/05/11 08:46:40;;;;;;;5.15;1.65;;;16.70;90.10;;;;;;4143930;28;20058;-63
2023/05/11 08:48:43;;;;;;;3.10;1.20;;;16.80;89.70;;;;;;4144615;28;20030;-61
2023/05/11 08:50:44;;;;;;;2.08;1.40;;;16.70;89.80;;;;;;4143437;28;20092;-62
2023/05/11 08:52:46;;;;;;;4.68;1.42;;;16.50;90.50;;;;;;4149520;28;20089;-62
2023/05/11 08:54:47;;;;;;;3.95;1.10;;;16.50;90.60;;;;;;4159628;28;20079;-63
2023/05/11 08:56:50;;;;;;;1.83;1.00;;;16.80;90.20;;;;;;4159456;28;20045;-61
2023/05/11 08:58:54;;;;;;;2.35;1.08;;;16.60;89.00;;;;;;4143531;28;20486;-62
2023/05/11 09:00:56;;;;;;;15.40;2.20;;;16.70;87.20;;;;;;4143279;28;20420;-61
2023/05/11 09:02:57;;;;;;;3.30;1.08;;;16.50;86.50;;;;;;4144371;28;20073;-62
2023/05/11 09:05:02;;;;;;;4.47;1.60;;;16.50;86.30;;;;;;4143408;28;20030;-61
2023/05/11 09:07:04;;;;;;;0.93;0.80;;;16.50;86.20;;;;;;4144596;28;20438;-60
2023/05/11 09:09:05;;;;;;;4.15;1.25;;;16.60;86.00;;;;;;4144872;28;20038;-62
2023/05/11 09:11:06;;;;;;;5.38;1.48;;;16.60;84.70;;;;;;4160812;28;20462;-61
2023/05/11 09:13:08;;;;;;;2.95;1.10;;;16.50;83.60;;;;;;4159931;28;20029;-77
2023/05/11 09:15:10;;;;;;;1.58;1.25;;;16.30;84.20;;;;;;4160282;28;20076;-63
2023/05/11 09:17:11;;;;;;;0.80;0.80;;;16.20;85.50;;;;;;4159966;28;20091;-74
2023/05/11 09:19:17;;;;;;;1.77;1.30;;;16.40;86.50;;;;;;4161072;28;20041;-74
2023/05/11 09:21:19;;;;;;;1.98;1.77;;;16.60;84.90;;;;;;4160184;28;20038;-61
2023/05/11 09:23:27;;;;;;;1.70;1.30;;;16.70;85.10;;;;;;4153150;28;20433;-72
2023/05/11 09:25:33;;;;;;;1.85;1.20;;;16.80;84.60;;;;;;4143898;28;20033;-60
2023/05/11 09:27:40;;;;;;;4.57;1.55;;;16.30;85.30;;;;;;4148447;28;20470;-62
2023/05/11 09:29:41;;;;;;;2.00;1.38;;;16.50;85.80;;;;;;4147131;28;20017;-68
2023/05/11 09:31:45;;;;;;;1.85;1.10;;;16.60;85.20;;;;;;4147351;28;20141;-72
2023/05/11 09:33:46;;;;;;;2.83;1.17;;;16.90;85.10;;;;;;4145809;28;20080;-75
2023/05/11 09:35:47;;;;;;;4.53;1.52;;;17.00;83.90;;;;;;4147482;28;20096;-67
2023/05/11 09:38:00;;;;;;;5.60;1.35;;;17.10;83.70;;;;;;4146370;28;20113;-61
2023/05/11 09:40:01;;;;;;;2.47;1.10;;;17.10;83.70;;;;;;4147227;28;20022;-76
2023/05/11 09:42:20;;;;;;;3.42;1.30;;;16.90;82.60;;;;;;4146895;28;20042;-70
2023/05/11 09:44:30;;;;;;;2.00;1.17;;;16.70;82.50;;;;;;4147437;28;20030;-73
2023/05/11 09:46:31;;;;;;;2.58;1.00;;;16.50;81.70;;;;;;4156060;28;20107;-62
2023/05/11 09:48:34;;;;;;;2.60;1.00;;;16.60;81.80;;;;;;4162678;28;20025;-65
2023/05/11 09:50:35;;;;;;;1.52;0.80;;;16.90;82.40;;;;;;4163185;28;20025;-63
2023/05/11 09:52:49;;;;;;;2.10;0.90;;;17.10;79.50;;;;;;4162940;28;20026;-72
2023/05/11 09:54:50;;;;;;;1.02;0.93;;;17.10;79.50;;;;;;4172264;28;21060;-79
2023/05/11 09:56:55;;;;;;;2.58;0.73;;;17.10;78.80;;;;;;4178915;28;20041;-73
2023/05/11 09:58:57;;;;;;;2.17;1.00;;;17.10;78.60;;;;;;4180436;28;20033;-75
2023/05/11 10:00:58;;;;;;;2.35;0.90;;;17.00;79.60;;;;;;4178751;28;20451;-79
2023/05/11 10:03:01;;;;;;;1.58;1.05;;;17.10;80.00;;;;;;4179627;28;20055;-81
2023/05/11 10:05:12;;;;;;;4.90;1.25;;;17.00;78.90;;;;;;4128256;28;20058;-79
2023/05/11 10:07:32;;;;;;;4.10;1.10;;;17.00;79.70;;;;;;4146829;28;20092;-67
2023/05/11 10:09:34;;;;;;;1.35;0.98;;;17.00;80.40;;;;;;4161086;28;20037;-61
2023/05/11 10:11:37;;;;;;;5.53;1.25;;;16.90;80.10;;;;;;4163486;28;20033;-64
2023/05/11 10:13:39;;;;;;;1.35;1.10;;;17.00;81.00;;;;;;4157301;28;20042;-60
2023/05/11 10:15:42;;;;;;;4.50;1.05;;;17.00;80.60;;;;;;4163159;28;20095;-79
2023/05/11 10:17:44;;;;;;;2.50;1.00;;;16.90;79.60;;;;;;4146974;28;20433;-72
2023/05/11 10:19:47;;;;;;;1.10;1.00;;;16.90;79.90;;;;;;4147193;28;20120;-72
2023/05/11 10:21:50;;;;;;;2.85;1.02;;;16.80;79.30;;;;;;4146867;28;20148;-64
2023/05/11 10:23:52;;;;;;;4.28;0.85;;;16.80;78.70;;;;;;4147589;28;20038;-62
2023/05/11 10:25:53;;;;;;;0.93;0.80;;;16.80;78.60;;;;;;4146134;28;20030;-64
2023/05/11 10:27:56;;;;;;;4.05;0.88;;;17.00;78.50;;;;;;4159522;28;20095;-62
2023/05/11 10:29:57;;;;;;;2.63;0.80;;;17.00;78.20;;;;;;4176902;28;20627;-60
2023/05/11 10:32:01;;;;;;;3.20;0.80;;;17.10;78.30;;;;;;4171040;28;20160;-60
2023/05/11 10:34:03;;;;;;;1.92;1.00;;;17.00;78.40;;;;;;4162875;28;20067;-62
2023/05/11 10:36:06;;;;;;;1.77;0.90;;;16.90;77.50;;;;;;4174141;28;20088;-62
2023/05/11 10:38:09;;;;;;;1.52;0.98;;;16.80;78.30;;;;;;4156048;28;20107;-62
2023/05/11 10:40:10;;;;;;;2.30;0.93;;;16.90;79.10;;;;;;4174434;28;20086;-62
2023/05/11 10:42:38;;;;;;;2.65;0.98;;;16.90;78.90;;;;;;4178503;28;20437;-62